Time;durP1;ratioP1;P1;durP2;ratioP2;P2;SDS_P1;SDS_P2;PMS_P1;PMS_P2;Temp;Humidity;BMP_temperature;BMP_pressure;BME280_temperature;BME280_humidity;BME280_pressure;Samples;Min_cycle;Max_cycle;Signal;HPM_P1;HPM_P2
2023/03/22 00:02:25;;;;;;;8.90;5.37;;;10.90;99.90;;;;;;5052821;28;20273;-72
2023/03/22 00:04:51;;;;;;;5.80;4.93;;;11.00;99.90;;;;;;5041194;28;20295;-71
2023/03/22 00:07:16;;;;;;;6.20;5.50;;;11.00;99.90;;;;;;5032723;28;20760;-71
2023/03/22 00:09:42;;;;;;;5.20;4.70;;;11.00;99.90;;;;;;5032053;28;20419;-71
2023/03/22 00:12:08;;;;;;;8.03;5.40;;;11.00;99.90;;;;;;5032860;28;20219;-72
2023/03/22 00:14:33;;;;;;;7.03;5.40;;;10.90;99.90;;;;;;5032707;28;20687;-72
2023/03/22 00:16:59;;;;;;;4.57;3.83;;;10.90;99.90;;;;;;5032625;28;20232;-72
2023/03/22 00:19:25;;;;;;;6.20;5.20;;;10.90;99.90;;;;;;5032767;28;20330;-72
2023/03/22 00:21:51;;;;;;;9.00;4.53;;;10.90;99.90;;;;;;5032761;28;20534;-71
2023/03/22 00:24:16;;;;;;;6.07;5.30;;;11.00;99.90;;;;;;5032740;28;20540;-71
2023/03/22 00:26:42;;;;;;;5.77;4.37;;;10.90;99.90;;;;;;5040269;28;20190;-72
2023/03/22 00:29:07;;;;;;;6.23;5.00;;;11.00;99.90;;;;;;5060983;28;20193;-71
2023/03/22 00:31:33;;;;;;;6.97;5.63;;;11.00;99.90;;;;;;5071102;28;20193;-72
2023/03/22 00:33:58;;;;;;;6.70;4.97;;;11.00;99.90;;;;;;5072422;28;20582;-72
2023/03/22 00:36:24;;;;;;;7.50;4.20;;;11.00;99.90;;;;;;5072419;28;20253;-71
2023/03/22 00:38:50;;;;;;;6.53;5.30;;;11.00;99.90;;;;;;5071982;28;20273;-71
2023/03/22 00:41:23;;;;;;;6.27;4.80;;;11.00;99.90;;;;;;5072301;28;20257;-71
2023/03/22 00:43:50;;;;;;;8.93;5.97;;;10.90;99.90;;;;;;5071968;28;20436;-72
2023/03/22 00:46:18;;;;;;;8.20;5.40;;;10.80;99.90;;;;;;5072198;28;20484;-71
2023/03/22 00:48:44;;;;;;;5.70;4.77;;;10.70;99.90;;;;;;5071845;28;20893;-71
2023/03/22 00:51:10;;;;;;;10.57;4.53;;;10.70;99.90;;;;;;5072090;28;20462;-72
2023/03/22 00:53:37;;;;;;;8.50;5.93;;;10.70;99.90;;;;;;5071993;28;20194;-71
2023/03/22 00:56:04;;;;;;;7.63;5.90;;;10.50;99.90;;;;;;5072224;28;20408;-71
2023/03/22 00:58:29;;;;;;;10.40;5.97;;;10.60;99.90;;;;;;5071707;28;20461;-72
2023/03/22 01:00:55;;;;;;;7.93;5.73;;;10.50;99.90;;;;;;5072003;28;20492;-72
2023/03/22 01:03:21;;;;;;;8.60;4.30;;;10.40;99.90;;;;;;5072480;28;20265;-72
2023/03/22 01:05:48;;;;;;;7.03;4.67;;;10.40;99.90;;;;;;5052576;28;20170;-72
2023/03/22 01:08:14;;;;;;;8.33;5.60;;;10.40;99.90;;;;;;5051537;28;20297;-72
2023/03/22 01:10:41;;;;;;;12.43;6.90;;;10.40;99.90;;;;;;5051874;28;20687;-72
2023/03/22 01:13:07;;;;;;;6.67;5.17;;;10.40;99.90;;;;;;5051540;28;20461;-71
2023/03/22 01:15:33;;;;;;;8.20;5.63;;;10.40;99.90;;;;;;5051863;28;20425;-72
2023/03/22 01:17:59;;;;;;;8.20;6.00;;;10.30;99.90;;;;;;5050203;28;20825;-71
2023/03/22 01:20:25;;;;;;;8.30;5.47;;;10.40;99.90;;;;;;5051893;28;20540;-71
2023/03/22 01:22:51;;;;;;;8.57;5.77;;;10.30;99.90;;;;;;5058332;28;20436;-71
2023/03/22 01:25:17;;;;;;;7.43;5.20;;;10.30;99.90;;;;;;5058478;28;20475;-70
2023/03/22 01:27:43;;;;;;;6.17;5.57;;;10.30;99.90;;;;;;5058037;28;20412;-72
2023/03/22 01:30:09;;;;;;;7.40;6.10;;;10.20;99.90;;;;;;5058466;28;20170;-72
2023/03/22 01:32:36;;;;;;;9.40;6.90;;;10.10;99.90;;;;;;5058380;28;20436;-71
2023/03/22 01:35:03;;;;;;;13.90;5.70;;;10.00;99.90;;;;;;5058247;28;20413;-71
2023/03/22 01:37:28;;;;;;;8.67;6.40;;;10.00;99.90;;;;;;5058098;28;20410;-71
2023/03/22 01:39:54;;;;;;;5.93;4.93;;;9.90;99.90;;;;;;5070605;28;20459;-71
2023/03/22 01:42:21;;;;;;;7.07;6.37;;;9.90;99.90;;;;;;5058215;28;20198;-72
2023/03/22 01:45:15;;;;;;;9.90;7.10;;;9.90;99.90;;;;;;5058183;28;20249;-71
2023/03/22 01:48:07;;;;;;;9.37;6.47;;;9.90;99.90;;;;;;5057967;28;20397;-71
2023/03/22 01:50:33;;;;;;;8.07;7.27;;;10.00;99.90;;;;;;5058187;28;20436;-72
2023/03/22 01:53:00;;;;;;;7.23;6.17;;;10.10;99.90;;;;;;5058066;28;20461;-71
2023/03/22 01:55:26;;;;;;;9.37;7.33;;;10.00;99.90;;;;;;5058163;28;20624;-72
2023/03/22 01:57:53;;;;;;;8.67;6.60;;;10.00;99.90;;;;;;5057815;28;20393;-71
2023/03/22 02:00:19;;;;;;;6.10;5.50;;;10.00;99.90;;;;;;5058018;28;20461;-71
2023/03/22 02:02:47;;;;;;;8.57;6.10;;;10.10;99.90;;;;;;5057987;28;20428;-71
2023/03/22 02:05:13;;;;;;;9.40;6.10;;;10.10;99.90;;;;;;5042932;28;20514;-71
2023/03/22 02:07:41;;;;;;;9.13;7.10;;;10.10;99.90;;;;;;5036640;28;20413;-71
2023/03/22 02:10:18;;;;;;;9.07;6.93;;;10.10;99.90;;;;;;5038083;28;20667;-71
2023/03/22 02:13:09;;;;;;;8.63;6.33;;;10.10;99.90;;;;;;5037853;28;20429;-71
2023/03/22 02:16:05;;;;;;;6.60;5.80;;;10.10;99.90;;;;;;5037945;28;20501;-71
2023/03/22 02:19:16;;;;;;;7.67;5.80;;;10.10;99.90;;;;;;5035644;28;20422;-71
2023/03/22 02:21:52;;;;;;;6.23;5.40;;;10.00;99.90;;;;;;5029347;28;20807;-71
2023/03/22 02:24:37;;;;;;;7.43;5.80;;;10.00;99.90;;;;;;5038040;28;20909;-71
2023/03/22 02:27:22;;;;;;;8.83;6.27;;;9.90;99.90;;;;;;5037605;28;20460;-71
2023/03/22 02:30:02;;;;;;;7.20;5.80;;;9.90;99.90;;;;;;5037961;28;20409;-71
2023/03/22 02:32:36;;;;;;;6.60;6.00;;;9.80;99.90;;;;;;5034937;28;20441;-71
2023/03/22 02:35:24;;;;;;;8.60;6.03;;;9.80;99.90;;;;;;5034824;28;20406;-71
2023/03/22 02:38:02;;;;;;;5.80;5.20;;;9.80;99.90;;;;;;5034422;28;20418;-71
2023/03/22 02:40:40;;;;;;;10.50;6.60;;;9.80;99.90;;;;;;5033326;28;20950;-71
2023/03/22 02:43:24;;;;;;;5.63;5.00;;;9.70;99.90;;;;;;5034511;28;20461;-71
2023/03/22 02:45:55;;;;;;;8.73;5.80;;;9.70;99.90;;;;;;5033297;28;20414;-71
2023/03/22 02:48:27;;;;;;;6.43;5.80;;;9.80;99.90;;;;;;5064760;28;20897;-71
2023/03/22 02:51:10;;;;;;;6.80;5.60;;;9.70;99.90;;;;;;5054358;28;20414;-71
2023/03/22 02:53:48;;;;;;;10.23;6.30;;;9.70;99.90;;;;;;5054320;28;20425;-72
2023/03/22 02:56:23;;;;;;;8.77;6.50;;;9.70;99.90;;;;;;5054364;28;20440;-72
2023/03/22 02:58:55;;;;;;;8.33;5.93;;;9.70;99.90;;;;;;5053905;28;20539;-72
2023/03/22 03:01:35;;;;;;;6.30;5.60;;;9.70;99.90;;;;;;5054187;28;20402;-72
2023/03/22 03:04:06;;;;;;;10.10;5.63;;;9.60;99.90;;;;;;5048005;28;20447;-72
2023/03/22 03:06:38;;;;;;;8.63;4.97;;;9.60;99.90;;;;;;5034258;28;20410;-73
2023/03/22 03:09:05;;;;;;;7.60;4.67;;;9.60;99.90;;;;;;5032646;28;20833;-72
2023/03/22 03:11:30;;;;;;;7.77;5.60;;;9.60;99.90;;;;;;5033969;28;20441;-72
2023/03/22 03:13:56;;;;;;;6.20;4.67;;;9.60;99.90;;;;;;5033866;28;20461;-72
2023/03/22 03:16:26;;;;;;;8.27;5.70;;;9.60;99.90;;;;;;5034071;28;20168;-72
2023/03/22 03:19:14;;;;;;;6.63;5.43;;;9.50;99.90;;;;;;5033643;28;20205;-72
2023/03/22 03:21:52;;;;;;;8.57;5.27;;;9.60;99.90;;;;;;5032685;28;20464;-72
2023/03/22 03:24:41;;;;;;;8.10;5.70;;;9.50;99.90;;;;;;5033901;28;20756;-72
2023/03/22 03:27:10;;;;;;;6.57;4.90;;;9.40;99.90;;;;;;5033550;28;20405;-73
2023/03/22 03:29:59;;;;;;;5.90;4.97;;;9.40;99.90;;;;;;5033832;28;20406;-73
2023/03/22 03:32:34;;;;;;;4.20;3.80;;;9.30;99.90;;;;;;5032427;28;20434;-72
2023/03/22 03:35:36;;;;;;;6.77;4.30;;;9.30;99.90;;;;;;5033645;28;20402;-72
2023/03/22 03:38:18;;;;;;;6.70;4.70;;;9.30;99.90;;;;;;5031995;28;20410;-72
2023/03/22 03:40:51;;;;;;;9.10;5.67;;;9.30;99.90;;;;;;5033381;28;20456;-73
2023/03/22 03:43:18;;;;;;;5.70;4.83;;;9.40;99.90;;;;;;5033445;28;20418;-73
2023/03/22 03:45:44;;;;;;;9.60;5.30;;;9.30;99.90;;;;;;5032341;28;20421;-72
2023/03/22 03:48:18;;;;;;;6.33;5.03;;;9.30;99.90;;;;;;5031843;28;20977;-73
2023/03/22 03:50:46;;;;;;;6.07;4.63;;;9.20;99.90;;;;;;5033368;28;20417;-72
2023/03/22 03:53:11;;;;;;;6.07;4.80;;;9.30;99.90;;;;;;5046417;28;20435;-72
2023/03/22 03:55:37;;;;;;;5.40;4.33;;;9.30;99.90;;;;;;5060911;28;20409;-72
2023/03/22 03:58:02;;;;;;;8.80;5.50;;;9.20;99.90;;;;;;5052980;28;20508;-72
2023/03/22 04:00:28;;;;;;;5.23;3.90;;;9.20;99.90;;;;;;5053036;28;20223;-72
2023/03/22 04:02:54;;;;;;;7.13;4.70;;;9.20;99.90;;;;;;5052958;28;20194;-73
2023/03/22 04:05:20;;;;;;;4.83;4.27;;;9.20;99.90;;;;;;5035615;28;20182;-72
2023/03/22 04:07:45;;;;;;;7.37;4.83;;;9.20;99.90;;;;;;5031495;28;20199;-71
2023/03/22 04:10:11;;;;;;;6.63;4.83;;;9.20;99.90;;;;;;5032867;28;20414;-73
2023/03/22 04:12:37;;;;;;;6.60;4.93;;;9.20;99.90;;;;;;5032806;28;20547;-72
2023/03/22 04:15:03;;;;;;;10.43;6.23;;;9.10;99.90;;;;;;5032929;28;20663;-71
2023/03/22 04:17:30;;;;;;;11.97;4.20;;;9.10;99.90;;;;;;5032637;28;20407;-73
2023/03/22 04:19:56;;;;;;;8.63;5.50;;;9.10;99.90;;;;;;5031434;28;20222;-72
2023/03/22 04:22:23;;;;;;;8.20;4.57;;;9.10;99.90;;;;;;5032753;28;20468;-73
2023/03/22 04:24:49;;;;;;;8.53;4.93;;;9.10;99.90;;;;;;5032684;28;20951;-72
2023/03/22 04:27:18;;;;;;;5.30;3.80;;;9.10;99.90;;;;;;5032402;28;20486;-72
2023/03/22 04:29:47;;;;;;;6.13;4.60;;;9.20;99.90;;;;;;5032649;28;20442;-72
2023/03/22 04:32:17;;;;;;;8.77;5.13;;;9.20;99.90;;;;;;5032557;28;20505;-72
2023/03/22 04:34:44;;;;;;;8.87;4.87;;;9.10;99.90;;;;;;5032534;28;20770;-72
2023/03/22 04:37:10;;;;;;;5.30;3.97;;;9.20;99.90;;;;;;5032183;28;20425;-72
2023/03/22 04:39:35;;;;;;;5.47;4.37;;;9.10;99.90;;;;;;5032505;28;20548;-73
2023/03/22 04:42:01;;;;;;;6.73;5.83;;;9.20;99.90;;;;;;5032362;28;20426;-72
2023/03/22 04:44:26;;;;;;;5.00;4.00;;;9.20;99.90;;;;;;5031163;28;20224;-73
2023/03/22 04:46:52;;;;;;;6.33;4.10;;;9.20;99.90;;;;;;5032017;28;20233;-72
2023/03/22 04:49:17;;;;;;;6.13;4.30;;;9.20;99.90;;;;;;5032349;28;20171;-72
2023/03/22 04:51:43;;;;;;;7.17;3.60;;;9.20;99.90;;;;;;5032112;28;20172;-73
2023/03/22 04:54:08;;;;;;;5.70;3.97;;;9.20;99.90;;;;;;5032271;28;20163;-72
2023/03/22 04:56:34;;;;;;;5.90;4.50;;;9.10;99.90;;;;;;5031808;28;20242;-73
2023/03/22 04:59:00;;;;;;;8.43;4.57;;;9.10;99.90;;;;;;5031943;28;20656;-73
2023/03/22 05:01:25;;;;;;;6.50;5.00;;;9.00;99.90;;;;;;5032136;28;20179;-73
2023/03/22 05:03:51;;;;;;;5.23;4.33;;;9.00;99.90;;;;;;5035015;28;20187;-72
2023/03/22 05:06:17;;;;;;;5.60;3.83;;;8.90;99.90;;;;;;5063035;28;20201;-73
2023/03/22 05:08:42;;;;;;;6.93;4.23;;;8.80;99.90;;;;;;5051749;28;20228;-72
2023/03/22 05:11:13;;;;;;;6.67;4.97;;;8.80;99.90;;;;;;5052014;28;20174;-73
2023/03/22 05:13:39;;;;;;;4.97;4.47;;;8.80;99.90;;;;;;5050528;28;20293;-72
2023/03/22 05:16:06;;;;;;;6.97;5.40;;;8.80;99.90;;;;;;5050651;28;20492;-72
2023/03/22 05:18:32;;;;;;;8.00;5.17;;;8.70;99.90;;;;;;5050243;28;20401;-72
2023/03/22 05:20:59;;;;;;;9.83;6.40;;;8.70;99.90;;;;;;5051696;28;20484;-73
2023/03/22 05:23:25;;;;;;;7.30;5.00;;;8.70;99.90;;;;;;5051657;28;21014;-72
2023/03/22 05:25:52;;;;;;;6.87;5.70;;;8.70;99.90;;;;;;5051774;28;20472;-72
2023/03/22 05:28:20;;;;;;;11.33;5.23;;;8.70;99.90;;;;;;5051552;28;20225;-73
2023/03/22 05:30:46;;;;;;;6.43;5.33;;;8.70;99.90;;;;;;5051830;28;20410;-73
2023/03/22 05:33:13;;;;;;;5.57;4.67;;;8.70;99.90;;;;;;5051685;28;20421;-72
2023/03/22 05:35:40;;;;;;;5.70;4.60;;;8.80;99.90;;;;;;5051704;28;20485;-73
2023/03/22 05:38:06;;;;;;;7.17;4.37;;;8.70;99.90;;;;;;5051376;28;20768;-73
2023/03/22 05:40:32;;;;;;;6.37;5.27;;;8.80;99.90;;;;;;5051865;28;20448;-73
2023/03/22 05:42:57;;;;;;;5.70;4.17;;;8.80;99.90;;;;;;5051563;28;20532;-73
2023/03/22 05:45:24;;;;;;;7.33;4.90;;;8.80;99.90;;;;;;5051650;28;20167;-73
2023/03/22 05:47:50;;;;;;;6.50;5.20;;;8.90;99.90;;;;;;5050087;28;20167;-73
2023/03/22 05:50:17;;;;;;;7.73;6.73;;;8.90;99.90;;;;;;5051541;28;20428;-73
2023/03/22 05:52:44;;;;;;;8.33;4.87;;;9.00;99.90;;;;;;5051466;28;20429;-73
2023/03/22 05:55:12;;;;;;;6.00;5.40;;;9.10;99.90;;;;;;5051660;28;20401;-73
2023/03/22 05:57:38;;;;;;;7.63;5.77;;;9.20;99.90;;;;;;5051544;28;20412;-71
2023/03/22 06:00:09;;;;;;;8.90;5.77;;;9.30;99.90;;;;;;5051650;28;20949;-72
2023/03/22 06:02:35;;;;;;;8.13;5.20;;;9.40;99.90;;;;;;5050099;28;20425;-72
2023/03/22 06:05:01;;;;;;;7.20;6.43;;;9.60;99.90;;;;;;5038323;28;20493;-72
2023/03/22 06:07:26;;;;;;;9.40;5.30;;;9.70;99.90;;;;;;5031271;28;20501;-72
2023/03/22 06:09:52;;;;;;;8.63;5.33;;;9.80;99.90;;;;;;5035198;28;20168;-72
2023/03/22 06:12:21;;;;;;;8.70;5.20;;;9.90;99.90;;;;;;5035017;28;20199;-72
2023/03/22 06:14:46;;;;;;;5.83;4.67;;;10.10;99.90;;;;;;5035135;28;20175;-72
2023/03/22 06:17:12;;;;;;;9.70;5.50;;;10.40;99.90;;;;;;5064210;28;20958;-72
2023/03/22 06:19:37;;;;;;;6.70;5.20;;;10.60;99.90;;;;;;5054995;28;20652;-72
2023/03/22 06:22:03;;;;;;;7.27;4.77;;;10.70;99.90;;;;;;5054968;28;20183;-73
2023/03/22 06:24:28;;;;;;;5.63;4.40;;;10.90;99.90;;;;;;5055027;28;20222;-73
2023/03/22 06:26:54;;;;;;;5.80;4.13;;;11.20;99.90;;;;;;5054642;28;20167;-72
2023/03/22 06:29:20;;;;;;;12.00;4.50;;;11.20;99.90;;;;;;5054811;28;20206;-73
2023/03/22 06:31:46;;;;;;;3.93;3.53;;;11.40;99.90;;;;;;5054744;28;20687;-73
2023/03/22 06:34:12;;;;;;;5.70;3.93;;;11.60;99.90;;;;;;5054765;28;20190;-73
2023/03/22 06:36:37;;;;;;;6.67;3.47;;;11.80;99.90;;;;;;5054741;28;20901;-72
2023/03/22 06:39:04;;;;;;;4.57;3.67;;;11.80;99.90;;;;;;5054467;28;20195;-73
2023/03/22 06:41:29;;;;;;;4.43;3.07;;;11.90;99.90;;;;;;5054669;28;20171;-73
2023/03/22 06:43:55;;;;;;;5.80;3.30;;;12.00;99.90;;;;;;5054694;28;20463;-71
2023/03/22 06:46:21;;;;;;;8.60;3.63;;;12.10;99.90;;;;;;5054516;28;20418;-72
2023/03/22 06:48:46;;;;;;;6.50;2.20;;;12.20;99.90;;;;;;5054241;28;20601;-71
2023/03/22 06:51:12;;;;;;;4.73;2.63;;;12.30;99.90;;;;;;5054368;28;20167;-71
2023/03/22 06:53:37;;;;;;;9.63;2.90;;;12.40;99.90;;;;;;5053139;28;20614;-71
2023/03/22 06:56:03;;;;;;;6.03;3.00;;;12.60;99.90;;;;;;5054341;28;20640;-71
2023/03/22 06:58:29;;;;;;;9.70;3.63;;;12.70;99.90;;;;;;5053923;28;20171;-72
2023/03/22 07:00:55;;;;;;;2.47;2.20;;;12.80;99.90;;;;;;5054081;28;20866;-72
2023/03/22 07:03:21;;;;;;;4.53;2.33;;;12.90;99.90;;;;;;5054179;28;20202;-72
2023/03/22 07:05:47;;;;;;;3.90;2.20;;;12.90;99.90;;;;;;5033288;28;20415;-72
2023/03/22 07:08:12;;;;;;;3.20;2.23;;;12.90;99.90;;;;;;5033910;28;20179;-72
2023/03/22 07:10:38;;;;;;;2.50;2.30;;;13.00;99.90;;;;;;5034590;28;20516;-72
2023/03/22 07:13:03;;;;;;;7.03;2.23;;;13.00;99.90;;;;;;5034186;28;20238;-72
2023/03/22 07:15:29;;;;;;;2.70;1.90;;;13.00;99.90;;;;;;5034031;28;20175;-71
2023/03/22 07:17:55;;;;;;;5.67;2.40;;;13.10;99.90;;;;;;5033822;28;20620;-72
2023/03/22 07:20:20;;;;;;;4.07;2.50;;;13.30;99.90;;;;;;5033620;28;20544;-72
2023/03/22 07:22:47;;;;;;;2.87;2.17;;;13.50;99.90;;;;;;5032636;28;20278;-72
2023/03/22 07:25:13;;;;;;;6.90;2.47;;;14.20;99.90;;;;;;5033950;28;20159;-72
2023/03/22 07:27:39;;;;;;;3.40;2.13;;;14.70;99.90;;;;;;5046018;28;20451;-72
2023/03/22 07:30:05;;;;;;;2.33;1.90;;;14.80;99.90;;;;;;5061873;28;20171;-72
2023/03/22 07:32:30;;;;;;;1.70;1.60;;;14.80;99.90;;;;;;5053667;28;20215;-72
2023/03/22 07:34:56;;;;;;;5.53;1.80;;;15.20;99.90;;;;;;5053620;28;20444;-73
2023/03/22 07:37:21;;;;;;;3.53;2.07;;;15.60;99.90;;;;;;5053377;28;20171;-74
2023/03/22 07:39:47;;;;;;;2.07;1.87;;;16.10;99.90;;;;;;5052279;28;20221;-73
2023/03/22 07:42:13;;;;;;;1.90;1.43;;;16.60;99.90;;;;;;5052056;28;20194;-74
2023/03/22 07:44:38;;;;;;;1.57;1.40;;;17.30;99.90;;;;;;5052296;28;20175;-69
2023/03/22 07:47:04;;;;;;;2.23;1.63;;;17.40;99.90;;;;;;5051358;28;20175;-68
2023/03/22 07:49:30;;;;;;;3.23;1.70;;;17.10;99.90;;;;;;5053465;28;20175;-68
2023/03/22 07:51:56;;;;;;;5.10;2.10;;;16.60;99.90;;;;;;5052055;28;20735;-71
2023/03/22 07:54:21;;;;;;;1.93;1.40;;;16.30;99.90;;;;;;5053380;28;20539;-67
2023/03/22 07:56:47;;;;;;;4.17;1.93;;;16.00;99.90;;;;;;5053747;28;20255;-70
2023/03/22 07:59:15;;;;;;;1.90;1.47;;;15.90;99.90;;;;;;5053461;28;20252;-67
2023/03/22 08:01:41;;;;;;;2.13;1.40;;;15.80;99.90;;;;;;5053249;28;20167;-72
2023/03/22 08:04:06;;;;;;;2.90;1.10;;;16.10;99.90;;;;;;5051827;28;20860;-74
2023/03/22 08:06:32;;;;;;;1.43;1.10;;;16.80;99.90;;;;;;5053084;28;20163;-76
2023/03/22 08:08:58;;;;;;;3.13;1.10;;;17.30;99.90;;;;;;5052883;28;20181;-73
2023/03/22 08:11:24;;;;;;;2.57;1.33;;;18.10;99.90;;;;;;5053207;28;20571;-71
2023/03/22 08:13:49;;;;;;;2.70;1.00;;;18.90;95.40;;;;;;5052865;28;20532;-71
2023/03/22 08:16:15;;;;;;;1.33;0.90;;;19.50;91.00;;;;;;5053015;28;20640;-71
2023/03/22 08:18:41;;;;;;;3.70;1.13;;;20.40;84.90;;;;;;5052394;28;20163;-71
2023/03/22 08:21:06;;;;;;;1.60;1.20;;;20.30;73.50;;;;;;5051571;28;20406;-69
2023/03/22 08:23:32;;;;;;;4.23;1.10;;;20.50;72.60;;;;;;5052684;28;20244;-69
2023/03/22 08:25:58;;;;;;;2.07;1.10;;;20.50;66.60;;;;;;5052799;28;20175;-72
2023/03/22 08:28:23;;;;;;;3.67;0.90;;;20.50;65.40;;;;;;5051075;28;20175;-73
2023/03/22 08:30:49;;;;;;;6.07;1.57;;;20.20;62.50;;;;;;5052101;28;20178;-69
2023/03/22 08:33:15;;;;;;;1.03;0.93;;;19.60;62.50;;;;;;5051706;28;20327;-72
2023/03/22 08:35:41;;;;;;;3.93;1.23;;;19.40;64.30;;;;;;5066269;28;20250;-72
2023/03/22 08:38:07;;;;;;;1.37;0.70;;;20.00;64.80;;;;;;5052310;28;20405;-72
2023/03/22 08:40:32;;;;;;;1.27;0.87;;;20.60;61.40;;;;;;5052392;28;20464;-72
2023/03/22 08:42:59;;;;;;;1.97;1.10;;;21.60;59.10;;;;;;5052435;28;20187;-74
2023/03/22 08:45:24;;;;;;;1.10;0.90;;;22.50;56.50;;;;;;5052487;28;20171;-74
2023/03/22 08:47:50;;;;;;;1.20;0.90;;;23.50;56.70;;;;;;5051937;28;20413;-72
2023/03/22 08:50:16;;;;;;;1.80;1.03;;;23.40;53.20;;;;;;5052400;28;20194;-70
2023/03/22 08:52:42;;;;;;;3.03;1.17;;;23.10;53.20;;;;;;5051060;28;20305;-71
2023/03/22 08:55:08;;;;;;;1.00;0.83;;;22.80;52.30;;;;;;5052242;28;20449;-71
2023/03/22 08:57:34;;;;;;;2.50;0.90;;;22.50;52.80;;;;;;5051858;28;20167;-72
2023/03/22 09:00:00;;;;;;;6.67;4.17;;;22.50;54.00;;;;;;5052244;28;20453;-72
2023/03/22 09:02:26;;;;;;;2.23;1.03;;;22.40;52.80;;;;;;5051963;28;20806;-72
2023/03/22 09:04:52;;;;;;;1.60;1.07;;;21.70;52.80;;;;;;5040173;28;20172;-71
2023/03/22 09:07:19;;;;;;;1.40;1.10;;;21.00;53.60;;;;;;5031925;28;20508;-72
2023/03/22 09:09:45;;;;;;;1.80;1.00;;;20.70;56.40;;;;;;5032146;28;20176;-73
2023/03/22 09:12:11;;;;;;;4.97;1.10;;;20.20;55.70;;;;;;5031983;28;20434;-73
2023/03/22 09:14:37;;;;;;;2.60;1.00;;;19.70;56.20;;;;;;5031983;28;20433;-73
2023/03/22 09:17:03;;;;;;;1.17;0.90;;;19.20;57.60;;;;;;5031723;28;20255;-71
2023/03/22 09:19:30;;;;;;;1.20;1.10;;;18.70;59.00;;;;;;5032029;28;20199;-71
2023/03/22 09:21:56;;;;;;;2.23;0.90;;;18.30;59.70;;;;;;5032093;28;20931;-73
2023/03/22 09:24:21;;;;;;;1.30;1.00;;;18.30;62.50;;;;;;5031907;28;20410;-72
2023/03/22 09:26:47;;;;;;;1.23;0.90;;;18.90;65.00;;;;;;5031749;28;20178;-71
2023/03/22 09:29:12;;;;;;;2.43;1.27;;;19.60;61.60;;;;;;5031712;28;20160;-72
2023/03/22 09:31:39;;;;;;;2.30;0.90;;;20.00;59.90;;;;;;5031786;28;20167;-72
2023/03/22 09:34:04;;;;;;;3.10;0.80;;;20.50;59.60;;;;;;5031966;28;20402;-72
2023/03/22 09:36:31;;;;;;;2.53;1.10;;;21.90;58.60;;;;;;5031595;28;20452;-72
2023/03/22 09:38:58;;;;;;;1.50;1.27;;;22.00;55.10;;;;;;5031455;28;20637;-72
2023/03/22 09:41:36;;;;;;;1.53;1.43;;;21.70;54.20;;;;;;5062454;28;20450;-72
2023/03/22 09:44:07;;;;;;;2.03;0.93;;;21.30;53.40;;;;;;5055806;28;20735;-71
2023/03/22 09:46:36;;;;;;;7.17;1.00;;;20.70;53.30;;;;;;5055806;28;20401;-72
2023/03/22 09:49:08;;;;;;;1.90;0.93;;;20.50;54.70;;;;;;5055526;28;20409;-71
2023/03/22 09:51:46;;;;;;;4.03;1.50;;;20.60;55.20;;;;;;5054275;28;20417;-73
2023/03/22 09:54:20;;;;;;;1.80;0.77;;;20.60;55.50;;;;;;5055699;28;20392;-73
2023/03/22 09:56:53;;;;;;;1.13;1.00;;;21.00;56.40;;;;;;5055635;28;20411;-74
2023/03/22 09:59:32;;;;;;;2.77;0.77;;;21.20;54.50;;;;;;5055445;28;20965;-72
2023/03/22 10:02:01;;;;;;;2.90;0.97;;;20.60;54.10;;;;;;5055322;28;20449;-74
2023/03/22 10:04:50;;;;;;;1.53;1.10;;;20.10;54.90;;;;;;5046911;28;20489;-74
2023/03/22 10:07:29;;;;;;;1.73;1.10;;;20.50;56.60;;;;;;5034105;28;20406;-74
2023/03/22 10:10:16;;;;;;;1.10;0.90;;;20.90;55.90;;;;;;5035550;28;20464;-74
2023/03/22 10:13:05;;;;;;;1.53;1.00;;;20.50;55.80;;;;;;5033750;28;20857;-74
2023/03/22 10:15:38;;;;;;;1.00;0.80;;;19.80;56.10;;;;;;5035310;28;20460;-74
2023/03/22 10:18:08;;;;;;;2.80;1.03;;;19.70;57.80;;;;;;5033639;28;20414;-73
2023/03/22 10:21:00;;;;;;;1.17;0.80;;;19.70;57.30;;;;;;5035397;28;20978;-72
2023/03/22 10:23:46;;;;;;;7.97;1.13;;;19.40;56.80;;;;;;5035572;28;20529;-72
2023/03/22 10:26:29;;;;;;;9.23;1.37;;;18.60;57.80;;;;;;5035405;28;20400;-72
2023/03/22 10:28:59;;;;;;;3.40;1.00;;;18.80;59.40;;;;;;5034764;28;20772;-72
2023/03/22 10:31:26;;;;;;;4.87;1.30;;;19.50;61.10;;;;;;5035175;28;20501;-70
2023/03/22 10:34:02;;;;;;;2.70;1.50;;;20.00;60.00;;;;;;5034873;28;20509;-71
2023/03/22 10:36:32;;;;;;;1.80;1.03;;;20.20;58.40;;;;;;5034975;28;20429;-73
2023/03/22 10:39:11;;;;;;;2.60;1.33;;;20.00;58.50;;;;;;5033271;28;20406;-72
2023/03/22 10:41:38;;;;;;;1.60;0.83;;;19.90;58.70;;;;;;5034804;28;20410;-70
2023/03/22 10:44:05;;;;;;;3.30;1.17;;;19.40;58.60;;;;;;5034732;28;20409;-70
2023/03/22 10:46:37;;;;;;;2.80;1.23;;;19.40;59.70;;;;;;5034862;28;20402;-71
2023/03/22 10:49:03;;;;;;;4.77;0.97;;;19.00;59.00;;;;;;5033251;28;21013;-71
2023/03/22 10:51:42;;;;;;;1.50;0.80;;;18.40;58.80;;;;;;5060026;28;20467;-71
2023/03/22 10:54:13;;;;;;;1.77;0.77;;;17.80;60.70;;;;;;5072550;28;20416;-71
2023/03/22 10:56:38;;;;;;;1.83;0.90;;;17.50;63.10;;;;;;5074473;28;20424;-73
2023/03/22 10:59:04;;;;;;;3.33;1.23;;;17.20;63.00;;;;;;5074167;28;20448;-72
2023/03/22 11:01:32;;;;;;;2.73;1.20;;;16.90;64.20;;;;;;5074376;28;20245;-71
2023/03/22 11:04:30;;;;;;;3.00;0.90;;;16.50;65.60;;;;;;5069520;28;20167;-71
2023/03/22 11:06:55;;;;;;;2.33;1.30;;;16.20;70.30;;;;;;5049686;28;20423;-71
2023/03/22 11:09:23;;;;;;;1.93;1.17;;;16.10;73.80;;;;;;5054252;28;20994;-72
2023/03/22 11:11:53;;;;;;;5.33;1.30;;;15.90;77.60;;;;;;5054194;28;20182;-71
2023/03/22 11:14:21;;;;;;;2.93;1.40;;;15.80;78.10;;;;;;5053990;28;20421;-72
2023/03/22 11:17:07;;;;;;;2.23;1.23;;;15.90;80.20;;;;;;5053971;28;20405;-71
2023/03/22 11:19:35;;;;;;;2.17;1.10;;;15.80;82.60;;;;;;5052676;28;20489;-72
2023/03/22 11:22:05;;;;;;;1.87;1.37;;;16.00;86.40;;;;;;5053852;28;20428;-73
2023/03/22 11:24:33;;;;;;;2.37;1.10;;;16.10;85.60;;;;;;5053989;28;20442;-73
2023/03/22 11:27:01;;;;;;;1.40;1.10;;;16.30;84.70;;;;;;5053530;28;20539;-73
2023/03/22 11:29:28;;;;;;;1.40;1.10;;;16.40;85.30;;;;;;5053875;28;20405;-72
2023/03/22 11:31:59;;;;;;;1.67;1.00;;;16.70;88.30;;;;;;5053771;28;20425;-72
2023/03/22 11:34:28;;;;;;;1.90;1.23;;;16.80;83.90;;;;;;5053903;28;20402;-71
2023/03/22 11:36:57;;;;;;;1.93;0.80;;;16.90;84.00;;;;;;5053473;28;20496;-71
2023/03/22 11:39:27;;;;;;;3.40;1.50;;;17.00;82.00;;;;;;5053580;28;20445;-71
2023/03/22 11:41:56;;;;;;;0.90;0.63;;;16.90;80.80;;;;;;5052253;28;20500;-72
2023/03/22 11:44:24;;;;;;;3.33;1.30;;;16.80;81.90;;;;;;5053518;28;20408;-72
2023/03/22 11:46:56;;;;;;;2.53;1.00;;;16.70;83.20;;;;;;5052008;28;20405;-72
2023/03/22 11:49:45;;;;;;;1.53;1.10;;;16.50;83.10;;;;;;5053665;28;20458;-72
2023/03/22 11:52:16;;;;;;;2.13;1.20;;;16.40;84.10;;;;;;5053482;28;20926;-71
2023/03/22 11:54:44;;;;;;;1.60;1.03;;;16.30;85.80;;;;;;5052049;28;20417;-72
2023/03/22 11:57:18;;;;;;;2.30;1.07;;;16.30;88.40;;;;;;5053020;28;20818;-72
2023/03/22 11:59:53;;;;;;;2.00;1.07;;;16.10;88.30;;;;;;5053218;28;20449;-72
2023/03/22 12:02:27;;;;;;;3.60;1.37;;;16.10;89.00;;;;;;5062288;28;20870;-71
2023/03/22 12:05:18;;;;;;;2.23;1.20;;;15.90;88.50;;;;;;5053330;28;20950;-72
2023/03/22 12:07:47;;;;;;;1.90;1.63;;;15.80;89.50;;;;;;5049358;28;20409;-70
2023/03/22 12:10:20;;;;;;;3.67;1.37;;;15.70;91.10;;;;;;5053025;28;20747;-71
2023/03/22 12:12:57;;;;;;;1.67;0.97;;;15.50;91.60;;;;;;5052771;28;20426;-71
2023/03/22 12:15:26;;;;;;;2.80;1.40;;;15.40;94.60;;;;;;5052951;28;20411;-72
2023/03/22 12:17:59;;;;;;;7.63;1.60;;;15.30;94.60;;;;;;5052582;28;20401;-73
2023/03/22 12:20:52;;;;;;;2.40;1.50;;;15.30;96.50;;;;;;5051357;28;20484;-71
2023/03/22 12:23:22;;;;;;;1.73;1.10;;;15.20;96.30;;;;;;5052840;28;20410;-71
2023/03/22 12:26:13;;;;;;;2.63;1.00;;;15.20;99.90;;;;;;5052724;28;20410;-73
2023/03/22 12:28:51;;;;;;;3.90;1.30;;;15.30;99.90;;;;;;5052569;28;20401;-71
2023/03/22 12:31:30;;;;;;;2.10;1.03;;;15.40;98.80;;;;;;5052782;28;20458;-71
2023/03/22 12:34:03;;;;;;;1.67;1.00;;;15.30;96.60;;;;;;5052623;28;20428;-71
2023/03/22 12:36:41;;;;;;;5.23;1.30;;;15.20;98.20;;;;;;5052640;28;20389;-71
2023/03/22 12:39:15;;;;;;;2.37;1.30;;;15.30;99.90;;;;;;5052251;28;20495;-72
2023/03/22 12:41:48;;;;;;;1.63;1.50;;;15.20;99.90;;;;;;5052566;28;20475;-72
2023/03/22 12:44:24;;;;;;;5.70;1.50;;;15.10;99.90;;;;;;5052604;28;20900;-72
2023/03/22 12:47:05;;;;;;;1.20;0.87;;;15.00;99.90;;;;;;5052279;28;20393;-72
2023/03/22 12:49:39;;;;;;;2.10;1.53;;;14.90;99.90;;;;;;5052578;28;20411;-70
2023/03/22 12:52:40;;;;;;;2.50;1.17;;;14.70;99.90;;;;;;5052304;28;20420;-71
2023/03/22 12:55:09;;;;;;;1.43;1.13;;;14.60;99.90;;;;;;5052136;28;20405;-71
2023/03/22 12:57:37;;;;;;;9.50;1.43;;;14.60;99.90;;;;;;5051939;28;20548;-71
2023/03/22 13:00:12;;;;;;;1.77;1.40;;;14.60;99.90;;;;;;5052121;28;20453;-71
2023/03/22 13:02:39;;;;;;;1.17;1.07;;;14.60;99.90;;;;;;5052119;28;20432;-71
2023/03/22 13:05:08;;;;;;;6.80;1.53;;;14.60;99.90;;;;;;5037165;28;20423;-72